createdAt,value
2023-03-21T00:00:01.802Z,98.23
2023-03-21T00:05:15.087Z,99.12
2023-03-21T00:10:29.759Z,98.24
2023-03-21T00:16:03.783Z,98.59
2023-03-21T00:26:34.224Z,98.83
2023-03-21T00:31:41.255Z,98.82
2023-03-21T00:36:44.247Z,99.99
2023-03-21T00:41:46.309Z,100.00
2023-03-21T00:47:04.250Z,100.00
2023-03-21T00:52:27.369Z,100.00
2023-03-21T00:57:38.597Z,100.00
2023-03-21T01:03:08.532Z,100.00
2023-03-21T01:08:25.398Z,100.00
2023-03-21T01:13:30.613Z,100.00
2023-03-21T01:18:35.714Z,100.00
2023-03-21T01:23:42.819Z,100.00
2023-03-21T01:28:45.935Z,100.00
2023-03-21T01:33:48.092Z,98.92
2023-03-21T01:38:50.711Z,97.81
2023-03-21T01:43:53.974Z,98.39
2023-03-21T01:49:05.104Z,99.54
2023-03-21T01:54:10.456Z,100.00
2023-03-21T01:59:17.685Z,100.00
2023-03-21T02:04:22.619Z,100.00
2023-03-21T02:09:28.527Z,100.00
2023-03-21T02:14:38.033Z,100.00
2023-03-21T02:20:09.252Z,100.00
2023-03-21T02:25:43.593Z,100.00
2023-03-21T02:30:52.486Z,100.00
2023-03-21T02:36:28.759Z,100.00
2023-03-21T02:41:40.152Z,100.00
2023-03-21T02:46:49.069Z,100.00
2023-03-21T02:52:05.453Z,100.00
2023-03-21T02:57:19.077Z,100.00
2023-03-21T03:02:27.466Z,100.00
2023-03-21T03:07:44.594Z,100.00
2023-03-21T03:12:57.865Z,100.00
2023-03-21T03:18:08.562Z,100.00
2023-03-21T03:23:21.353Z,99.85
2023-03-21T03:28:30.669Z,99.17
2023-03-21T03:33:38.257Z,99.06
2023-03-21T03:38:42.364Z,98.98
2023-03-21T03:43:49.559Z,98.88
2023-03-21T03:49:16.814Z,98.61
2023-03-21T03:54:28.800Z,98.17
2023-03-21T03:59:35.561Z,98.28
2023-03-21T04:04:37.526Z,98.66
2023-03-21T04:09:44.829Z,99.55
2023-03-21T04:14:48.237Z,100.00
2023-03-21T04:19:57.707Z,100.00
2023-03-21T04:25:07.663Z,100.00
2023-03-21T04:30:12.362Z,100.00
2023-03-21T04:35:15.578Z,100.00
2023-03-21T04:40:19.159Z,100.00
2023-03-21T04:45:22.504Z,100.00
2023-03-21T04:50:24.504Z,100.00
2023-03-21T04:55:28.304Z,100.00
2023-03-21T05:00:39.283Z,100.00
2023-03-21T05:05:41.585Z,100.00
2023-03-21T05:10:43.888Z,100.00
2023-03-21T05:15:46.015Z,100.00
2023-03-21T05:20:54.389Z,100.00
2023-03-21T05:25:56.324Z,100.00
2023-03-21T05:31:05.369Z,100.00
2023-03-21T05:36:09.979Z,100.00
2023-03-21T05:41:15.078Z,100.00
2023-03-21T05:46:17.172Z,100.00
2023-03-21T05:51:23.274Z,100.00
2023-03-21T05:56:26.438Z,100.00
2023-03-21T06:01:28.432Z,100.00
2023-03-21T06:06:30.299Z,100.00
2023-03-21T06:11:36.437Z,100.00
2023-03-21T06:11:56.945Z,100.00
2023-03-21T06:12:08.963Z,100.00
2023-03-21T06:12:20.892Z,100.00
2023-03-21T06:12:35.204Z,100.00
2023-03-21T06:12:47.114Z,100.00
2023-03-21T06:12:59.072Z,100.00
2023-03-21T06:13:11.035Z,100.00
2023-03-21T06:13:22.977Z,100.00
2023-03-21T06:13:34.879Z,100.00
2023-03-21T06:13:46.751Z,100.00
2023-03-21T06:14:01.250Z,100.00
2023-03-21T06:14:13.155Z,100.00
2023-03-21T06:14:25.638Z,100.00
2023-03-21T06:14:37.649Z,100.00
2023-03-21T06:14:50.480Z,100.00
2023-03-21T06:15:04.611Z,100.00
2023-03-21T06:15:16.954Z,100.00
2023-03-21T06:15:29.115Z,100.00
2023-03-21T06:25:45.261Z,100.00
2023-03-21T06:45:09.990Z,100.00
2023-03-21T06:55:12.140Z,99.20
2023-03-21T07:05:17.370Z,97.22
2023-03-21T07:15:19.417Z,96.87
2023-03-21T07:25:22.458Z,96.36
2023-03-21T07:35:24.498Z,92.33
2023-03-21T07:45:27.700Z,93.77
2023-03-21T07:55:40.246Z,93.16
2023-03-21T08:05:42.753Z,90.97
2023-03-21T08:15:45.802Z,87.86
2023-03-21T08:25:58.057Z,87.81
2023-03-21T08:36:01.180Z,86.06
2023-03-21T08:46:09.274Z,83.81
2023-03-21T08:56:13.317Z,81.65
2023-03-21T09:06:17.685Z,80.40
2023-03-21T09:16:28.773Z,80.78
2023-03-21T09:26:31.472Z,79.86
2023-03-21T09:36:44.401Z,81.96
2023-03-21T09:47:09.491Z,87.01
2023-03-21T09:57:23.689Z,89.44
2023-03-21T10:07:31.239Z,91.37
2023-03-21T10:18:10.547Z,90.77
2023-03-21T10:28:27.286Z,93.50
2023-03-21T10:38:31.551Z,89.79
2023-03-21T10:48:39.979Z,92.10
2023-03-21T10:58:47.256Z,87.14
2023-03-21T11:08:56.976Z,78.57
2023-03-21T11:19:16.385Z,74.84
2023-03-21T11:29:24.487Z,75.34
2023-03-21T11:39:41.344Z,78.21
2023-03-21T11:49:58.409Z,76.31
2023-03-21T12:00:26.562Z,75.00
2023-03-21T12:10:47.930Z,73.50
2023-03-21T12:21:21.136Z,71.81
2023-03-21T12:32:08.685Z,74.63
2023-03-21T12:42:35.184Z,76.75
2023-03-21T12:52:48.835Z,82.90
2023-03-21T13:03:21.059Z,84.79
2023-03-21T13:13:33.601Z,85.24
2023-03-21T13:23:38.307Z,83.63
2023-03-21T13:33:45.315Z,78.48
2023-03-21T13:44:08.998Z,75.24
2023-03-21T13:54:14.186Z,71.58
2023-03-21T14:04:26.339Z,65.33
2023-03-21T14:14:44.494Z,68.86
2023-03-21T14:25:10.209Z,67.37
2023-03-21T14:35:12.983Z,67.11
2023-03-21T14:45:23.341Z,65.49
2023-03-21T14:55:26.096Z,67.29
2023-03-21T15:05:46.437Z,65.39
2023-03-21T15:16:00.326Z,65.16
2023-03-21T15:26:04.364Z,66.37
2023-03-21T15:36:10.363Z,66.86
2023-03-21T15:46:33.425Z,66.68
2023-03-21T15:56:36.566Z,67.12
2023-03-21T16:06:53.669Z,67.28
2023-03-21T16:16:58.390Z,67.12
2023-03-21T16:27:00.794Z,67.76
2023-03-21T16:37:03.620Z,67.99
2023-03-21T16:47:15.831Z,71.69
2023-03-21T16:57:30.466Z,75.36
2023-03-21T17:07:44.293Z,81.32
2023-03-21T17:17:50.483Z,82.14
2023-03-21T17:27:54.340Z,84.49
2023-03-21T17:37:59.162Z,86.27
2023-03-21T17:48:03.212Z,93.74
2023-03-21T17:58:13.284Z,91.95
2023-03-21T18:08:27.345Z,93.68
2023-03-21T18:18:32.175Z,92.98
2023-03-21T18:28:39.735Z,95.58
2023-03-21T18:38:46.798Z,95.60
2023-03-21T18:49:07.888Z,96.92
2023-03-21T18:59:23.080Z,98.52
2023-03-21T19:09:32.459Z,97.26
2023-03-21T19:19:36.834Z,97.86
2023-03-21T19:29:57.004Z,97.01
2023-03-21T19:40:10.819Z,97.80
2023-03-21T20:00:38.449Z,96.54
2023-03-21T20:10:44.408Z,97.12
2023-03-21T20:20:53.287Z,98.17
2023-03-21T20:31:05.887Z,97.79
2023-03-21T20:41:15.878Z,97.95
2023-03-21T21:01:59.874Z,98.06
2023-03-21T21:12:07.121Z,97.16
2023-03-21T21:22:12.622Z,98.83
2023-03-21T21:32:17.019Z,97.28
2023-03-21T21:42:20.180Z,98.75
2023-03-21T21:52:24.436Z,98.66
2023-03-21T22:02:50.281Z,97.12
2023-03-21T22:13:02.269Z,97.04
2023-03-21T22:23:05.239Z,98.69
2023-03-21T22:33:09.878Z,97.19
2023-03-21T22:43:12.373Z,97.79
2023-03-21T22:53:16.409Z,97.69
2023-03-21T23:03:18.673Z,97.39
2023-03-21T23:13:26.918Z,97.38
2023-03-21T23:23:36.968Z,97.13
2023-03-21T23:33:39.113Z,98.03
2023-03-21T23:43:42.774Z,97.65
2023-03-21T23:53:56.907Z,97.86
